sensor_id;sensor_type;location;lat;lon;timestamp;P1;durP1;ratioP1;P2;durP2;ratioP2
65130;SDS011;51709;54.912;8.316;2022-07-10T00:03:21;18.63;;;4.07;;
65130;SDS011;51709;54.912;8.316;2022-07-10T00:08:41;11.25;;;2.67;;
65130;SDS011;51709;54.912;8.316;2022-07-10T00:14:02;12.27;;;2.97;;
65130;SDS011;51709;54.912;8.316;2022-07-10T00:19:24;17.80;;;3.22;;
65130;SDS011;51709;54.912;8.316;2022-07-10T00:24:44;13.35;;;3.40;;
65130;SDS011;51709;54.912;8.316;2022-07-10T00:30:05;19.95;;;3.88;;
65130;SDS011;51709;54.912;8.316;2022-07-10T00:35:27;23.25;;;5.03;;
65130;SDS011;51709;54.912;8.316;2022-07-10T00:40:47;21.35;;;5.18;;
65130;SDS011;51709;54.912;8.316;2022-07-10T00:46:08;24.17;;;4.00;;
65130;SDS011;51709;54.912;8.316;2022-07-10T00:51:29;16.77;;;4.28;;
65130;SDS011;51709;54.912;8.316;2022-07-10T00:56:50;22.02;;;3.72;;
65130;SDS011;51709;54.912;8.316;2022-07-10T01:02:11;10.57;;;3.03;;
65130;SDS011;51709;54.912;8.316;2022-07-10T01:07:33;17.35;;;4.45;;
65130;SDS011;51709;54.912;8.316;2022-07-10T01:12:54;22.90;;;3.75;;
65130;SDS011;51709;54.912;8.316;2022-07-10T01:18:15;15.25;;;3.58;;
65130;SDS011;51709;54.912;8.316;2022-07-10T01:23:36;23.35;;;4.18;;
65130;SDS011;51709;54.912;8.316;2022-07-10T01:28:56;14.43;;;3.58;;
65130;SDS011;51709;54.912;8.316;2022-07-10T01:34:17;20.88;;;4.07;;
65130;SDS011;51709;54.912;8.316;2022-07-10T01:39:39;20.92;;;3.70;;
65130;SDS011;51709;54.912;8.316;2022-07-10T01:45:00;17.38;;;3.22;;
65130;SDS011;51709;54.912;8.316;2022-07-10T01:50:26;21.25;;;2.72;;
65130;SDS011;51709;54.912;8.316;2022-07-10T01:55:46;15.45;;;3.13;;
65130;SDS011;51709;54.912;8.316;2022-07-10T02:01:07;19.58;;;2.90;;
65130;SDS011;51709;54.912;8.316;2022-07-10T02:06:28;16.17;;;3.13;;
65130;SDS011;51709;54.912;8.316;2022-07-10T02:11:49;10.35;;;2.55;;
65130;SDS011;51709;54.912;8.316;2022-07-10T02:17:10;20.38;;;3.10;;
65130;SDS011;51709;54.912;8.316;2022-07-10T02:22:31;20.58;;;4.70;;
65130;SDS011;51709;54.912;8.316;2022-07-10T02:27:52;11.35;;;2.80;;
65130;SDS011;51709;54.912;8.316;2022-07-10T02:33:13;13.40;;;3.63;;
65130;SDS011;51709;54.912;8.316;2022-07-10T02:38:33;28.67;;;4.95;;
65130;SDS011;51709;54.912;8.316;2022-07-10T02:43:54;24.15;;;3.03;;
65130;SDS011;51709;54.912;8.316;2022-07-10T02:49:15;20.40;;;4.38;;
65130;SDS011;51709;54.912;8.316;2022-07-10T02:54:37;12.20;;;2.47;;
65130;SDS011;51709;54.912;8.316;2022-07-10T02:59:58;18.20;;;3.50;;
65130;SDS011;51709;54.912;8.316;2022-07-10T03:05:19;24.90;;;3.53;;
65130;SDS011;51709;54.912;8.316;2022-07-10T03:10:40;19.80;;;3.78;;
65130;SDS011;51709;54.912;8.316;2022-07-10T03:16:01;22.05;;;3.35;;
65130;SDS011;51709;54.912;8.316;2022-07-10T03:21:22;13.30;;;2.35;;
65130;SDS011;51709;54.912;8.316;2022-07-10T03:26:43;19.17;;;2.42;;
65130;SDS011;51709;54.912;8.316;2022-07-10T03:32:05;24.17;;;2.83;;
65130;SDS011;51709;54.912;8.316;2022-07-10T03:37:26;17.67;;;2.30;;
65130;SDS011;51709;54.912;8.316;2022-07-10T03:42:47;10.43;;;2.17;;
65130;SDS011;51709;54.912;8.316;2022-07-10T03:48:08;7.53;;;2.88;;
65130;SDS011;51709;54.912;8.316;2022-07-10T03:53:29;14.15;;;3.20;;
65130;SDS011;51709;54.912;8.316;2022-07-10T03:58:50;6.60;;;2.05;;
65130;SDS011;51709;54.912;8.316;2022-07-10T04:04:10;21.58;;;3.03;;
65130;SDS011;51709;54.912;8.316;2022-07-10T04:09:31;7.15;;;1.80;;
65130;SDS011;51709;54.912;8.316;2022-07-10T04:14:52;14.57;;;2.60;;
65130;SDS011;51709;54.912;8.316;2022-07-10T04:20:13;13.40;;;1.88;;
65130;SDS011;51709;54.912;8.316;2022-07-10T04:25:35;6.35;;;2.38;;
65130;SDS011;51709;54.912;8.316;2022-07-10T04:30:57;12.45;;;2.33;;
65130;SDS011;51709;54.912;8.316;2022-07-10T04:36:18;13.70;;;2.45;;
65130;SDS011;51709;54.912;8.316;2022-07-10T04:41:39;6.55;;;2.13;;
65130;SDS011;51709;54.912;8.316;2022-07-10T04:47:00;17.73;;;2.30;;
65130;SDS011;51709;54.912;8.316;2022-07-10T04:52:21;13.38;;;2.55;;
65130;SDS011;51709;54.912;8.316;2022-07-10T04:57:42;16.45;;;2.35;;
65130;SDS011;51709;54.912;8.316;2022-07-10T05:03:04;15.82;;;2.28;;
65130;SDS011;51709;54.912;8.316;2022-07-10T05:08:25;10.88;;;2.05;;
65130;SDS011;51709;54.912;8.316;2022-07-10T05:13:46;9.98;;;2.50;;
65130;SDS011;51709;54.912;8.316;2022-07-10T05:19:08;6.53;;;2.33;;
65130;SDS011;51709;54.912;8.316;2022-07-10T05:24:29;13.98;;;1.92;;
65130;SDS011;51709;54.912;8.316;2022-07-10T05:29:50;11.48;;;2.35;;
65130;SDS011;51709;54.912;8.316;2022-07-10T05:35:11;19.02;;;3.55;;
65130;SDS011;51709;54.912;8.316;2022-07-10T05:40:33;14.20;;;2.10;;
65130;SDS011;51709;54.912;8.316;2022-07-10T05:45:54;15.20;;;2.20;;
65130;SDS011;51709;54.912;8.316;2022-07-10T05:51:18;12.35;;;1.98;;
65130;SDS011;51709;54.912;8.316;2022-07-10T05:56:50;13.25;;;2.00;;
65130;SDS011;51709;54.912;8.316;2022-07-10T06:02:11;14.02;;;2.92;;
65130;SDS011;51709;54.912;8.316;2022-07-10T06:07:32;5.90;;;2.10;;
65130;SDS011;51709;54.912;8.316;2022-07-10T06:12:53;15.50;;;2.33;;
65130;SDS011;51709;54.912;8.316;2022-07-10T06:18:14;8.05;;;2.40;;
65130;SDS011;51709;54.912;8.316;2022-07-10T06:23:35;14.52;;;2.75;;
65130;SDS011;51709;54.912;8.316;2022-07-10T06:28:55;16.30;;;2.60;;
65130;SDS011;51709;54.912;8.316;2022-07-10T06:34:16;7.43;;;1.80;;
65130;SDS011;51709;54.912;8.316;2022-07-10T06:39:37;11.55;;;2.38;;
65130;SDS011;51709;54.912;8.316;2022-07-10T06:44:57;11.70;;;2.17;;
65130;SDS011;51709;54.912;8.316;2022-07-10T06:50:18;9.50;;;1.88;;
65130;SDS011;51709;54.912;8.316;2022-07-10T06:55:39;10.07;;;1.98;;
65130;SDS011;51709;54.912;8.316;2022-07-10T07:01:00;11.38;;;3.10;;
65130;SDS011;51709;54.912;8.316;2022-07-10T07:06:21;8.70;;;1.98;;
65130;SDS011;51709;54.912;8.316;2022-07-10T07:11:42;17.08;;;2.53;;
65130;SDS011;51709;54.912;8.316;2022-07-10T07:17:04;16.90;;;2.35;;
65130;SDS011;51709;54.912;8.316;2022-07-10T07:22:27;11.38;;;1.85;;
65130;SDS011;51709;54.912;8.316;2022-07-10T07:28:07;9.60;;;1.77;;
65130;SDS011;51709;54.912;8.316;2022-07-10T07:33:33;12.05;;;1.90;;
65130;SDS011;51709;54.912;8.316;2022-07-10T07:38:55;7.90;;;1.95;;
65130;SDS011;51709;54.912;8.316;2022-07-10T07:44:16;11.02;;;1.92;;
65130;SDS011;51709;54.912;8.316;2022-07-10T07:49:48;10.73;;;1.67;;
65130;SDS011;51709;54.912;8.316;2022-07-10T07:55:10;6.90;;;2.30;;
65130;SDS011;51709;54.912;8.316;2022-07-10T08:00:32;5.10;;;2.10;;
65130;SDS011;51709;54.912;8.316;2022-07-10T08:05:56;9.82;;;2.20;;
65130;SDS011;51709;54.912;8.316;2022-07-10T08:11:16;18.35;;;2.20;;
65130;SDS011;51709;54.912;8.316;2022-07-10T08:16:38;11.73;;;1.95;;
65130;SDS011;51709;54.912;8.316;2022-07-10T08:21:58;13.98;;;1.95;;
65130;SDS011;51709;54.912;8.316;2022-07-10T08:27:19;4.38;;;1.60;;
65130;SDS011;51709;54.912;8.316;2022-07-10T08:32:39;13.10;;;2.00;;
65130;SDS011;51709;54.912;8.316;2022-07-10T08:38:00;14.07;;;2.35;;
65130;SDS011;51709;54.912;8.316;2022-07-10T08:43:21;9.52;;;2.10;;
65130;SDS011;51709;54.912;8.316;2022-07-10T08:48:42;17.70;;;2.65;;
65130;SDS011;51709;54.912;8.316;2022-07-10T08:54:07;14.60;;;2.22;;
65130;SDS011;51709;54.912;8.316;2022-07-10T08:59:29;19.02;;;2.35;;
65130;SDS011;51709;54.912;8.316;2022-07-10T09:04:51;8.90;;;2.33;;
65130;SDS011;51709;54.912;8.316;2022-07-10T09:10:12;13.50;;;2.50;;
65130;SDS011;51709;54.912;8.316;2022-07-10T09:15:32;4.78;;;1.67;;
65130;SDS011;51709;54.912;8.316;2022-07-10T09:20:53;6.45;;;1.77;;
65130;SDS011;51709;54.912;8.316;2022-07-10T09:26:14;13.48;;;2.05;;
65130;SDS011;51709;54.912;8.316;2022-07-10T09:31:48;7.70;;;2.00;;
65130;SDS011;51709;54.912;8.316;2022-07-10T09:42:47;9.30;;;2.03;;
65130;SDS011;51709;54.912;8.316;2022-07-10T09:48:09;6.63;;;1.55;;
65130;SDS011;51709;54.912;8.316;2022-07-10T09:53:30;7.18;;;1.88;;
65130;SDS011;51709;54.912;8.316;2022-07-10T09:58:53;7.35;;;2.08;;
65130;SDS011;51709;54.912;8.316;2022-07-10T10:04:20;11.43;;;2.60;;
65130;SDS011;51709;54.912;8.316;2022-07-10T10:09:47;14.07;;;2.20;;
65130;SDS011;51709;54.912;8.316;2022-07-10T10:15:18;14.57;;;2.95;;
65130;SDS011;51709;54.912;8.316;2022-07-10T10:20:40;19.85;;;2.58;;
65130;SDS011;51709;54.912;8.316;2022-07-10T10:26:03;11.70;;;2.25;;
65130;SDS011;51709;54.912;8.316;2022-07-10T10:31:24;27.70;;;2.72;;
65130;SDS011;51709;54.912;8.316;2022-07-10T10:36:47;11.27;;;2.55;;
65130;SDS011;51709;54.912;8.316;2022-07-10T10:42:07;6.45;;;2.20;;
65130;SDS011;51709;54.912;8.316;2022-07-10T10:47:28;10.13;;;2.83;;
65130;SDS011;51709;54.912;8.316;2022-07-10T10:53:39;17.70;;;2.47;;
65130;SDS011;51709;54.912;8.316;2022-07-10T10:59:00;11.80;;;2.10;;
65130;SDS011;51709;54.912;8.316;2022-07-10T11:04:21;10.77;;;2.17;;
65130;SDS011;51709;54.912;8.316;2022-07-10T11:10:07;7.20;;;1.70;;
65130;SDS011;51709;54.912;8.316;2022-07-10T11:15:50;11.18;;;2.17;;
65130;SDS011;51709;54.912;8.316;2022-07-10T11:21:14;6.80;;;1.70;;
65130;SDS011;51709;54.912;8.316;2022-07-10T11:26:49;13.48;;;2.03;;
65130;SDS011;51709;54.912;8.316;2022-07-10T11:32:32;11.50;;;1.77;;
65130;SDS011;51709;54.912;8.316;2022-07-10T11:37:54;8.45;;;1.83;;
65130;SDS011;51709;54.912;8.316;2022-07-10T11:43:15;11.55;;;2.22;;
65130;SDS011;51709;54.912;8.316;2022-07-10T11:48:40;10.35;;;2.53;;
65130;SDS011;51709;54.912;8.316;2022-07-10T11:59:38;8.00;;;1.80;;
65130;SDS011;51709;54.912;8.316;2022-07-10T12:04:59;7.88;;;1.95;;
65130;SDS011;51709;54.912;8.316;2022-07-10T12:10:19;9.40;;;1.75;;
65130;SDS011;51709;54.912;8.316;2022-07-10T12:15:48;13.10;;;2.03;;
65130;SDS011;51709;54.912;8.316;2022-07-10T12:21:09;9.80;;;2.05;;
65130;SDS011;51709;54.912;8.316;2022-07-10T12:26:32;10.50;;;2.33;;
65130;SDS011;51709;54.912;8.316;2022-07-10T12:31:58;11.55;;;1.80;;
65130;SDS011;51709;54.912;8.316;2022-07-10T12:37:23;7.07;;;1.70;;
65130;SDS011;51709;54.912;8.316;2022-07-10T12:42:44;13.10;;;2.33;;
65130;SDS011;51709;54.912;8.316;2022-07-10T12:48:05;15.00;;;2.50;;
65130;SDS011;51709;54.912;8.316;2022-07-10T12:53:29;5.85;;;2.63;;
65130;SDS011;51709;54.912;8.316;2022-07-10T12:58:49;4.47;;;1.58;;
65130;SDS011;51709;54.912;8.316;2022-07-10T13:04:10;10.10;;;2.03;;
65130;SDS011;51709;54.912;8.316;2022-07-10T13:09:32;6.50;;;1.90;;
65130;SDS011;51709;54.912;8.316;2022-07-10T13:14:52;3.95;;;1.77;;
65130;SDS011;51709;54.912;8.316;2022-07-10T13:20:13;4.47;;;1.60;;
65130;SDS011;51709;54.912;8.316;2022-07-10T13:25:33;6.68;;;2.22;;
65130;SDS011;51709;54.912;8.316;2022-07-10T13:30:54;8.15;;;1.90;;
65130;SDS011;51709;54.912;8.316;2022-07-10T13:36:15;8.32;;;2.08;;
65130;SDS011;51709;54.912;8.316;2022-07-10T13:41:36;5.72;;;1.75;;
65130;SDS011;51709;54.912;8.316;2022-07-10T13:46:57;10.68;;;2.75;;
65130;SDS011;51709;54.912;8.316;2022-07-10T13:52:17;12.98;;;2.30;;
65130;SDS011;51709;54.912;8.316;2022-07-10T13:57:39;6.70;;;2.42;;
65130;SDS011;51709;54.912;8.316;2022-07-10T14:02:59;9.07;;;2.30;;
65130;SDS011;51709;54.912;8.316;2022-07-10T14:08:20;4.70;;;2.22;;
65130;SDS011;51709;54.912;8.316;2022-07-10T14:13:41;10.85;;;2.83;;
65130;SDS011;51709;54.912;8.316;2022-07-10T14:19:03;10.48;;;2.10;;
65130;SDS011;51709;54.912;8.316;2022-07-10T14:24:31;8.65;;;1.60;;
65130;SDS011;51709;54.912;8.316;2022-07-10T14:29:59;10.93;;;2.60;;
65130;SDS011;51709;54.912;8.316;2022-07-10T14:35:21;9.77;;;2.10;;
65130;SDS011;51709;54.912;8.316;2022-07-10T14:40:41;11.18;;;2.30;;
65130;SDS011;51709;54.912;8.316;2022-07-10T14:46:02;11.20;;;2.20;;
65130;SDS011;51709;54.912;8.316;2022-07-10T14:51:25;5.93;;;1.80;;
65130;SDS011;51709;54.912;8.316;2022-07-10T14:56:46;11.93;;;2.17;;
65130;SDS011;51709;54.912;8.316;2022-07-10T15:02:08;9.23;;;1.90;;
65130;SDS011;51709;54.912;8.316;2022-07-10T15:07:30;8.43;;;1.95;;
65130;SDS011;51709;54.912;8.316;2022-07-10T15:12:52;9.07;;;1.98;;
65130;SDS011;51709;54.912;8.316;2022-07-10T15:18:13;6.97;;;2.10;;
65130;SDS011;51709;54.912;8.316;2022-07-10T15:23:35;8.20;;;1.98;;
65130;SDS011;51709;54.912;8.316;2022-07-10T15:28:56;6.35;;;2.17;;
65130;SDS011;51709;54.912;8.316;2022-07-10T15:34:19;2.60;;;1.60;;
65130;SDS011;51709;54.912;8.316;2022-07-10T15:39:39;6.10;;;2.30;;
65130;SDS011;51709;54.912;8.316;2022-07-10T15:45:04;8.20;;;2.05;;
65130;SDS011;51709;54.912;8.316;2022-07-10T15:50:34;7.93;;;2.72;;
65130;SDS011;51709;54.912;8.316;2022-07-10T15:55:55;4.57;;;1.92;;
65130;SDS011;51709;54.912;8.316;2022-07-10T16:01:20;3.72;;;2.00;;
65130;SDS011;51709;54.912;8.316;2022-07-10T16:06:42;5.32;;;2.78;;
65130;SDS011;51709;54.912;8.316;2022-07-10T16:12:05;5.50;;;2.47;;
65130;SDS011;51709;54.912;8.316;2022-07-10T16:17:27;16.20;;;3.03;;
65130;SDS011;51709;54.912;8.316;2022-07-10T16:22:48;5.45;;;3.35;;
65130;SDS011;51709;54.912;8.316;2022-07-10T16:28:09;6.53;;;2.90;;
65130;SDS011;51709;54.912;8.316;2022-07-10T16:33:30;8.95;;;2.70;;
65130;SDS011;51709;54.912;8.316;2022-07-10T16:38:51;10.20;;;3.03;;
65130;SDS011;51709;54.912;8.316;2022-07-10T16:44:13;13.82;;;7.50;;
65130;SDS011;51709;54.912;8.316;2022-07-10T16:49:35;5.85;;;2.65;;
65130;SDS011;51709;54.912;8.316;2022-07-10T16:54:58;4.47;;;2.10;;
65130;SDS011;51709;54.912;8.316;2022-07-10T17:00:20;7.88;;;2.47;;
65130;SDS011;51709;54.912;8.316;2022-07-10T17:05:43;5.30;;;1.92;;
65130;SDS011;51709;54.912;8.316;2022-07-10T17:11:05;4.28;;;1.67;;
65130;SDS011;51709;54.912;8.316;2022-07-10T17:16:28;14.65;;;2.85;;
65130;SDS011;51709;54.912;8.316;2022-07-10T17:21:49;3.70;;;2.08;;
65130;SDS011;51709;54.912;8.316;2022-07-10T17:27:23;5.82;;;2.00;;
65130;SDS011;51709;54.912;8.316;2022-07-10T17:32:46;8.60;;;2.03;;
65130;SDS011;51709;54.912;8.316;2022-07-10T17:38:16;2.83;;;1.52;;
65130;SDS011;51709;54.912;8.316;2022-07-10T17:43:41;7.13;;;1.85;;
65130;SDS011;51709;54.912;8.316;2022-07-10T17:49:04;4.65;;;1.75;;
65130;SDS011;51709;54.912;8.316;2022-07-10T17:54:26;3.22;;;1.65;;
65130;SDS011;51709;54.912;8.316;2022-07-10T17:59:47;5.88;;;1.48;;
65130;SDS011;51709;54.912;8.316;2022-07-10T18:05:08;7.78;;;1.67;;
65130;SDS011;51709;54.912;8.316;2022-07-10T18:10:33;3.63;;;1.52;;
65130;SDS011;51709;54.912;8.316;2022-07-10T18:15:54;7.80;;;1.40;;
65130;SDS011;51709;54.912;8.316;2022-07-10T18:21:30;8.85;;;1.55;;
65130;SDS011;51709;54.912;8.316;2022-07-10T18:26:52;10.80;;;1.75;;
65130;SDS011;51709;54.912;8.316;2022-07-10T18:32:14;4.00;;;1.35;;
65130;SDS011;51709;54.912;8.316;2022-07-10T18:37:35;7.40;;;1.75;;
65130;SDS011;51709;54.912;8.316;2022-07-10T18:42:56;8.25;;;1.65;;
65130;SDS011;51709;54.912;8.316;2022-07-10T18:48:18;6.32;;;1.67;;
65130;SDS011;51709;54.912;8.316;2022-07-10T18:53:38;6.15;;;1.95;;
65130;SDS011;51709;54.912;8.316;2022-07-10T18:59:00;4.25;;;1.33;;
65130;SDS011;51709;54.912;8.316;2022-07-10T19:04:21;9.25;;;1.60;;
65130;SDS011;51709;54.912;8.316;2022-07-10T19:09:41;6.32;;;1.17;;
65130;SDS011;51709;54.912;8.316;2022-07-10T19:15:02;6.55;;;1.75;;
65130;SDS011;51709;54.912;8.316;2022-07-10T19:20:23;8.40;;;2.30;;
65130;SDS011;51709;54.912;8.316;2022-07-10T19:25:44;6.90;;;1.88;;
65130;SDS011;51709;54.912;8.316;2022-07-10T19:31:05;3.50;;;2.05;;
65130;SDS011;51709;54.912;8.316;2022-07-10T19:36:26;2.13;;;1.10;;
65130;SDS011;51709;54.912;8.316;2022-07-10T19:41:47;5.07;;;1.58;;
65130;SDS011;51709;54.912;8.316;2022-07-10T19:47:08;3.40;;;1.17;;
65130;SDS011;51709;54.912;8.316;2022-07-10T19:52:29;5.78;;;1.98;;
65130;SDS011;51709;54.912;8.316;2022-07-10T19:57:52;6.20;;;1.88;;
65130;SDS011;51709;54.912;8.316;2022-07-10T20:03:15;6.25;;;1.52;;
65130;SDS011;51709;54.912;8.316;2022-07-10T20:08:36;6.30;;;1.55;;
65130;SDS011;51709;54.912;8.316;2022-07-10T20:13:56;4.50;;;1.50;;
65130;SDS011;51709;54.912;8.316;2022-07-10T20:19:17;2.95;;;1.95;;
65130;SDS011;51709;54.912;8.316;2022-07-10T20:24:37;11.93;;;1.88;;
65130;SDS011;51709;54.912;8.316;2022-07-10T20:29:58;10.35;;;2.25;;
65130;SDS011;51709;54.912;8.316;2022-07-10T20:35:19;6.07;;;1.20;;
65130;SDS011;51709;54.912;8.316;2022-07-10T20:40:40;8.18;;;1.60;;
65130;SDS011;51709;54.912;8.316;2022-07-10T20:46:00;6.32;;;1.42;;
65130;SDS011;51709;54.912;8.316;2022-07-10T20:51:21;9.63;;;1.63;;
65130;SDS011;51709;54.912;8.316;2022-07-10T20:56:42;3.60;;;1.50;;
65130;SDS011;51709;54.912;8.316;2022-07-10T21:02:03;17.17;;;1.83;;
65130;SDS011;51709;54.912;8.316;2022-07-10T21:07:24;3.67;;;1.50;;
65130;SDS011;51709;54.912;8.316;2022-07-10T21:12:45;2.08;;;1.20;;
65130;SDS011;51709;54.912;8.316;2022-07-10T21:18:06;8.25;;;1.40;;
65130;SDS011;51709;54.912;8.316;2022-07-10T21:23:27;3.60;;;1.50;;
65130;SDS011;51709;54.912;8.316;2022-07-10T21:28:48;7.53;;;1.52;;
65130;SDS011;51709;54.912;8.316;2022-07-10T21:34:08;2.70;;;0.95;;
65130;SDS011;51709;54.912;8.316;2022-07-10T21:39:29;3.92;;;1.73;;
65130;SDS011;51709;54.912;8.316;2022-07-10T21:44:49;6.15;;;1.50;;
65130;SDS011;51709;54.912;8.316;2022-07-10T21:50:10;3.88;;;1.00;;
65130;SDS011;51709;54.912;8.316;2022-07-10T21:55:31;4.35;;;1.10;;
65130;SDS011;51709;54.912;8.316;2022-07-10T22:00:51;6.07;;;1.05;;
65130;SDS011;51709;54.912;8.316;2022-07-10T22:06:12;2.72;;;0.98;;
65130;SDS011;51709;54.912;8.316;2022-07-10T22:11:33;2.92;;;1.02;;
65130;SDS011;51709;54.912;8.316;2022-07-10T22:16:54;10.40;;;1.10;;
65130;SDS011;51709;54.912;8.316;2022-07-10T22:22:14;5.15;;;1.20;;
65130;SDS011;51709;54.912;8.316;2022-07-10T22:27:35;1.92;;;1.33;;
65130;SDS011;51709;54.912;8.316;2022-07-10T22:32:56;7.32;;;1.08;;
65130;SDS011;51709;54.912;8.316;2022-07-10T22:38:17;1.83;;;1.00;;
65130;SDS011;51709;54.912;8.316;2022-07-10T22:43:37;4.63;;;1.20;;
65130;SDS011;51709;54.912;8.316;2022-07-10T22:48:59;7.55;;;1.48;;
65130;SDS011;51709;54.912;8.316;2022-07-10T22:54:20;12.32;;;1.35;;
65130;SDS011;51709;54.912;8.316;2022-07-10T22:59:41;1.50;;;1.23;;
65130;SDS011;51709;54.912;8.316;2022-07-10T23:05:01;4.00;;;1.10;;
65130;SDS011;51709;54.912;8.316;2022-07-10T23:10:22;2.28;;;0.85;;
65130;SDS011;51709;54.912;8.316;2022-07-10T23:15:44;2.75;;;0.80;;
65130;SDS011;51709;54.912;8.316;2022-07-10T23:21:05;4.55;;;0.88;;
65130;SDS011;51709;54.912;8.316;2022-07-10T23:26:26;7.25;;;1.02;;
65130;SDS011;51709;54.912;8.316;2022-07-10T23:31:46;4.40;;;0.98;;
65130;SDS011;51709;54.912;8.316;2022-07-10T23:37:07;5.57;;;0.95;;
65130;SDS011;51709;54.912;8.316;2022-07-10T23:42:27;2.05;;;0.88;;
65130;SDS011;51709;54.912;8.316;2022-07-10T23:47:48;1.17;;;0.82;;
65130;SDS011;51709;54.912;8.316;2022-07-10T23:53:08;2.95;;;1.17;;
65130;SDS011;51709;54.912;8.316;2022-07-10T23:58:29;4.85;;;1.23;;
